createdAt,value
2023-02-25T00:00:22.505Z,8.88
2023-02-25T00:02:27.622Z,9.65
2023-02-25T00:04:32.898Z,9.77
2023-02-25T00:08:43.271Z,9.52
2023-02-25T00:10:59.607Z,10.07
2023-02-25T00:13:17.382Z,9.48
2023-02-25T00:15:23.068Z,10.50
2023-02-25T00:17:27.974Z,9.70
2023-02-25T00:19:32.880Z,9.63
2023-02-25T00:21:38.233Z,9.50
2023-02-25T00:23:43.041Z,8.98
2023-02-25T00:25:50.837Z,8.25
2023-02-25T00:27:55.620Z,8.63
2023-02-25T00:30:02.194Z,8.10
2023-02-25T00:34:12.147Z,7.50
2023-02-25T00:36:20.821Z,8.10
2023-02-25T00:38:25.998Z,6.93
2023-02-25T00:40:30.760Z,6.70
2023-02-25T00:42:38.157Z,6.72
2023-02-25T00:44:43.257Z,6.45
2023-02-25T00:46:48.041Z,6.68
2023-02-25T00:48:55.546Z,6.97
2023-02-25T00:51:00.421Z,6.07
2023-02-25T00:53:05.200Z,7.05
2023-02-25T00:55:10.769Z,7.18
2023-02-25T00:57:15.562Z,7.00
2023-02-25T00:59:22.988Z,7.07
2023-02-25T01:01:29.991Z,5.97
2023-02-25T01:03:35.399Z,6.15
2023-02-25T01:05:43.910Z,6.32
2023-02-25T01:07:48.885Z,6.55
2023-02-25T01:09:53.786Z,6.53
2023-02-25T01:11:58.610Z,7.55
2023-02-25T01:14:05.245Z,7.60
2023-02-25T01:16:17.671Z,7.75
2023-02-25T01:18:22.520Z,8.05
2023-02-25T01:20:29.956Z,8.57
2023-02-25T01:22:34.773Z,8.07
2023-02-25T01:24:39.570Z,8.98
2023-02-25T01:26:47.554Z,8.93
2023-02-25T01:28:52.344Z,8.93
2023-02-25T01:30:58.305Z,9.68
2023-02-25T01:33:05.988Z,10.07
2023-02-25T01:35:11.529Z,9.75
2023-02-25T01:37:16.345Z,8.85
2023-02-25T01:39:23.800Z,9.45
2023-02-25T01:41:30.937Z,9.57
2023-02-25T01:43:43.554Z,9.18
2023-02-25T01:45:49.080Z,9.18
2023-02-25T01:47:57.717Z,8.55
2023-02-25T01:50:05.508Z,9.20
2023-02-25T01:52:14.235Z,8.00
2023-02-25T01:54:20.211Z,7.50
2023-02-25T01:56:29.468Z,8.95
2023-02-25T01:58:36.456Z,8.07
2023-02-25T02:00:41.787Z,8.00
2023-02-25T02:02:48.031Z,7.65
2023-02-25T02:04:55.894Z,7.47
2023-02-25T02:07:04.305Z,7.75
2023-02-25T02:09:13.427Z,6.93
2023-02-25T02:11:19.105Z,6.90
2023-02-25T02:15:28.674Z,6.90
2023-02-25T02:17:38.524Z,7.22
2023-02-25T02:20:16.229Z,6.68
2023-02-25T02:22:30.726Z,6.90
2023-02-25T02:24:58.951Z,7.35
2023-02-25T02:27:05.675Z,7.05
2023-02-25T02:29:31.460Z,7.07
2023-02-25T02:31:57.129Z,7.10
2023-02-25T02:34:16.898Z,7.10
2023-02-25T02:36:32.269Z,7.18
2023-02-25T02:38:41.171Z,6.15
2023-02-25T02:40:53.850Z,6.88
2023-02-25T02:43:09.581Z,5.75
2023-02-25T02:45:20.456Z,6.38
2023-02-25T02:47:31.110Z,6.18
2023-02-25T02:49:43.623Z,6.05
2023-02-25T02:51:52.976Z,5.82
2023-02-25T02:54:06.025Z,5.75
2023-02-25T02:56:15.171Z,5.65
2023-02-25T02:58:25.048Z,6.07
2023-02-25T03:00:36.803Z,5.07
2023-02-25T03:02:46.810Z,6.22
2023-02-25T03:04:56.991Z,5.82
2023-02-25T03:07:05.406Z,6.93
2023-02-25T03:09:14.944Z,6.47
2023-02-25T03:11:20.129Z,6.57
2023-02-25T03:13:25.391Z,5.75
2023-02-25T03:15:32.503Z,6.63
2023-02-25T03:17:45.636Z,5.53
2023-02-25T03:19:57.726Z,5.47
2023-02-25T03:22:07.662Z,5.20
2023-02-25T03:24:22.522Z,5.63
2023-02-25T03:26:31.674Z,5.50
2023-02-25T03:28:41.952Z,4.93
2023-02-25T03:30:57.231Z,4.78
2023-02-25T03:33:10.783Z,4.07
2023-02-25T03:35:20.192Z,4.50
2023-02-25T03:37:33.977Z,4.53
2023-02-25T03:39:46.241Z,3.65
2023-02-25T03:41:55.190Z,4.13
2023-02-25T03:44:02.596Z,4.13
2023-02-25T03:46:09.208Z,4.60
2023-02-25T03:48:19.822Z,4.40
2023-02-25T03:50:26.928Z,4.50
2023-02-25T03:52:36.228Z,4.20
2023-02-25T03:54:57.141Z,4.00
2023-02-25T03:57:02.467Z,3.45
2023-02-25T03:59:08.100Z,3.88
2023-02-25T04:01:17.974Z,4.20
2023-02-25T04:03:26.178Z,4.05
2023-02-25T04:05:31.179Z,3.58
2023-02-25T04:09:41.700Z,4.30
2023-02-25T04:11:46.588Z,3.88
2023-02-25T04:13:51.390Z,4.05
2023-02-25T04:15:56.941Z,3.65
2023-02-25T04:18:01.844Z,4.00
2023-02-25T04:20:10.067Z,3.75
2023-02-25T04:22:15.827Z,3.53
2023-02-25T04:24:20.699Z,3.35
2023-02-25T04:26:26.200Z,2.97
2023-02-25T04:28:31.044Z,3.03
2023-02-25T04:30:35.924Z,3.03
2023-02-25T04:32:41.207Z,2.70
2023-02-25T04:34:45.981Z,3.33
2023-02-25T04:36:54.320Z,2.80
2023-02-25T04:39:00.450Z,2.95
2023-02-25T04:41:05.240Z,3.30
2023-02-25T04:43:10.038Z,3.17
2023-02-25T04:45:15.820Z,3.10
2023-02-25T04:47:20.823Z,2.97
2023-02-25T04:49:25.987Z,3.05
2023-02-25T04:53:38.556Z,3.13
2023-02-25T04:55:43.762Z,3.05
2023-02-25T04:59:55.499Z,3.17
2023-02-25T05:02:00.441Z,3.58
2023-02-25T05:04:05.293Z,3.78
2023-02-25T05:06:11.305Z,3.75
2023-02-25T05:08:16.154Z,3.42
2023-02-25T05:10:23.781Z,3.08
2023-02-25T05:12:28.598Z,2.92
2023-02-25T05:14:33.559Z,3.28
2023-02-25T05:16:38.846Z,3.38
2023-02-25T05:18:45.601Z,3.38
2023-02-25T05:20:50.797Z,2.85
2023-02-25T05:22:55.754Z,3.78
2023-02-25T05:25:00.565Z,3.72
2023-02-25T05:27:09.831Z,3.30
2023-02-25T05:29:15.467Z,4.03
2023-02-25T05:31:20.728Z,3.28
2023-02-25T05:33:27.180Z,3.28
2023-02-25T05:35:32.673Z,3.80
2023-02-25T05:37:38.113Z,3.13
2023-02-25T05:39:42.936Z,3.33
2023-02-25T05:41:49.003Z,3.65
2023-02-25T05:43:56.428Z,3.80
2023-02-25T05:46:03.494Z,3.80
2023-02-25T05:48:08.979Z,3.72
2023-02-25T05:50:14.491Z,3.67
2023-02-25T05:52:19.371Z,3.78
2023-02-25T05:54:24.264Z,3.90
2023-02-25T05:56:32.160Z,3.95
2023-02-25T05:58:38.941Z,3.22
2023-02-25T06:00:46.677Z,3.63
2023-02-25T06:02:51.587Z,4.30
2023-02-25T06:04:56.475Z,3.28
2023-02-25T06:07:03.372Z,2.85
2023-02-25T06:09:09.474Z,3.83
2023-02-25T06:11:16.406Z,2.75
2023-02-25T06:13:21.192Z,3.28
2023-02-25T06:15:26.000Z,3.25
2023-02-25T06:17:33.407Z,2.97
2023-02-25T06:19:38.213Z,3.35
2023-02-25T06:21:43.194Z,3.20
2023-02-25T06:23:50.475Z,3.03
2023-02-25T06:25:55.335Z,3.17
2023-02-25T06:28:00.245Z,3.60
2023-02-25T06:30:05.432Z,3.15
2023-02-25T06:34:18.502Z,3.20
2023-02-25T06:36:24.248Z,4.15
2023-02-25T06:38:29.383Z,3.17
2023-02-25T06:40:35.167Z,2.85
2023-02-25T06:42:39.992Z,3.03
2023-02-25T06:44:44.766Z,3.53
2023-02-25T06:46:49.580Z,2.75
2023-02-25T06:48:57.730Z,2.60
2023-02-25T06:51:09.350Z,2.85
2023-02-25T06:53:14.352Z,2.90
2023-02-25T06:55:19.406Z,3.10
2023-02-25T06:57:24.197Z,3.40
2023-02-25T06:59:29.089Z,3.05
2023-02-25T07:01:34.023Z,3.15
2023-02-25T07:03:38.847Z,2.80
2023-02-25T07:05:43.784Z,3.30
2023-02-25T07:07:51.236Z,3.45
2023-02-25T07:09:56.053Z,3.13
2023-02-25T07:12:01.388Z,2.60
2023-02-25T07:14:08.560Z,2.63
2023-02-25T07:16:13.987Z,2.80
2023-02-25T07:18:18.923Z,3.28
2023-02-25T07:20:23.704Z,4.82
2023-02-25T07:22:28.492Z,5.47
2023-02-25T07:24:35.830Z,4.47
2023-02-25T07:26:40.795Z,4.88
2023-02-25T07:28:48.322Z,3.58
2023-02-25T07:30:55.291Z,4.68
2023-02-25T07:33:00.263Z,3.80
2023-02-25T07:35:05.398Z,2.90
2023-02-25T07:39:15.409Z,3.45
2023-02-25T07:41:23.414Z,3.20
2023-02-25T07:43:28.476Z,3.28
2023-02-25T07:45:33.342Z,3.00
2023-02-25T07:47:38.334Z,3.83
2023-02-25T07:49:43.232Z,3.65
2023-02-25T07:51:48.082Z,3.83
2023-02-25T07:53:56.300Z,3.70
2023-02-25T07:56:01.303Z,3.67
2023-02-25T07:58:08.806Z,4.13
2023-02-25T08:00:15.976Z,3.45
2023-02-25T08:02:21.587Z,3.58
2023-02-25T08:04:27.467Z,4.00
2023-02-25T08:06:33.022Z,4.38
2023-02-25T08:08:38.466Z,3.58
2023-02-25T08:10:43.363Z,3.72
2023-02-25T08:12:48.122Z,3.67
2023-02-25T08:14:57.522Z,4.85
2023-02-25T08:17:02.360Z,4.45
2023-02-25T08:19:07.731Z,4.40
2023-02-25T08:21:12.957Z,4.13
2023-02-25T08:23:19.699Z,4.07
2023-02-25T08:25:24.446Z,3.47
2023-02-25T08:27:29.382Z,3.53
2023-02-25T08:29:34.159Z,3.38
2023-02-25T08:31:41.698Z,4.40
2023-02-25T08:33:49.742Z,4.20
2023-02-25T08:35:55.097Z,3.78
2023-02-25T08:40:07.900Z,4.65
2023-02-25T08:42:14.711Z,4.20
2023-02-25T08:44:20.778Z,3.70
2023-02-25T08:46:28.204Z,4.07
2023-02-25T08:48:39.178Z,3.97
2023-02-25T08:50:44.021Z,3.42
2023-02-25T08:52:48.955Z,3.97
2023-02-25T08:54:56.036Z,4.03
2023-02-25T08:57:01.415Z,4.40
2023-02-25T08:59:07.495Z,4.13
2023-02-25T09:01:14.732Z,3.80
2023-02-25T09:03:19.590Z,3.92
2023-02-25T09:05:27.240Z,3.45
2023-02-25T09:07:32.075Z,3.90
2023-02-25T09:09:36.916Z,4.00
2023-02-25T09:11:41.801Z,4.18
2023-02-25T09:13:46.696Z,3.63
2023-02-25T09:15:58.983Z,3.90
2023-02-25T09:18:03.710Z,3.28
2023-02-25T09:20:11.584Z,3.60
2023-02-25T09:22:19.781Z,4.57
2023-02-25T09:24:24.525Z,4.80
2023-02-25T09:26:29.387Z,3.70
2023-02-25T09:28:34.320Z,3.70
2023-02-25T09:30:39.258Z,3.72
2023-02-25T09:32:45.550Z,3.33
2023-02-25T09:34:52.847Z,4.10
2023-02-25T09:37:00.665Z,3.85
2023-02-25T09:39:10.428Z,3.40
2023-02-25T09:41:27.306Z,3.40
2023-02-25T09:43:39.195Z,3.55
2023-02-25T09:45:47.594Z,3.63
2023-02-25T09:47:55.655Z,3.25
2023-02-25T09:50:03.057Z,3.97
2023-02-25T09:52:16.975Z,3.70
2023-02-25T09:54:30.702Z,3.95
2023-02-25T09:56:36.728Z,3.70
2023-02-25T09:58:46.873Z,4.32
2023-02-25T10:01:01.825Z,3.70
2023-02-25T10:03:14.223Z,3.67
2023-02-25T10:05:26.977Z,3.83
2023-02-25T10:07:37.584Z,3.92
2023-02-25T10:09:54.109Z,3.40
2023-02-25T10:12:10.164Z,3.35
2023-02-25T10:14:28.175Z,3.05
2023-02-25T10:16:45.750Z,3.17
2023-02-25T10:19:01.788Z,3.75
2023-02-25T10:21:16.380Z,3.20
2023-02-25T10:23:32.018Z,3.30
2023-02-25T10:25:45.491Z,4.13
2023-02-25T10:27:56.444Z,3.45
2023-02-25T10:30:07.380Z,3.05
2023-02-25T10:32:21.660Z,2.88
2023-02-25T10:34:29.179Z,3.28
2023-02-25T10:36:36.874Z,4.05
2023-02-25T10:38:46.334Z,3.40
2023-02-25T10:40:58.697Z,4.10
2023-02-25T10:43:12.672Z,3.03
2023-02-25T10:45:23.951Z,3.70
2023-02-25T10:47:36.369Z,3.75
2023-02-25T10:49:41.166Z,4.70
2023-02-25T10:52:03.305Z,3.95
2023-02-25T10:54:10.229Z,4.20
2023-02-25T10:56:17.620Z,4.32
2023-02-25T10:58:29.408Z,3.40
2023-02-25T11:00:36.477Z,5.88
2023-02-25T11:02:45.279Z,4.28
2023-02-25T11:04:52.499Z,4.07
2023-02-25T11:06:59.459Z,3.55
2023-02-25T11:09:06.868Z,3.80
2023-02-25T11:11:22.651Z,3.13
2023-02-25T11:13:31.726Z,3.40
2023-02-25T11:15:45.143Z,3.55
2023-02-25T11:17:51.210Z,4.10
2023-02-25T11:22:13.888Z,4.32
2023-02-25T11:24:20.847Z,4.70
2023-02-25T11:26:35.397Z,4.32
2023-02-25T11:28:43.585Z,5.32
2023-02-25T11:30:49.119Z,4.28
2023-02-25T11:32:58.030Z,5.05
2023-02-25T11:35:08.918Z,3.83
2023-02-25T11:37:28.039Z,3.60
2023-02-25T11:39:35.161Z,4.07
2023-02-25T11:41:43.770Z,3.90
2023-02-25T11:43:48.942Z,3.80
2023-02-25T11:48:01.534Z,3.25
2023-02-25T11:50:24.129Z,2.88
2023-02-25T11:52:40.138Z,3.85
2023-02-25T11:54:56.613Z,3.95
2023-02-25T11:57:12.105Z,3.53
2023-02-25T11:59:31.134Z,3.90
2023-02-25T12:01:56.503Z,3.45
2023-02-25T12:04:51.689Z,3.45
2023-02-25T12:07:16.899Z,3.63
2023-02-25T12:09:47.063Z,3.65
2023-02-25T12:12:24.601Z,3.78
2023-02-25T12:14:57.585Z,3.25
2023-02-25T12:17:28.646Z,3.35
2023-02-25T12:20:04.853Z,3.65
2023-02-25T12:22:39.260Z,4.32
2023-02-25T12:24:59.634Z,4.47
2023-02-25T12:27:38.689Z,4.63
2023-02-25T12:30:04.671Z,3.53
2023-02-25T12:32:22.342Z,3.60
2023-02-25T12:34:47.084Z,3.90
2023-02-25T12:37:06.618Z,4.07
2023-02-25T12:39:29.165Z,2.83
2023-02-25T12:41:47.525Z,2.67
2023-02-25T12:44:02.826Z,3.05
2023-02-25T12:46:22.321Z,2.13
2023-02-25T12:48:46.358Z,2.17
2023-02-25T12:51:08.532Z,2.10
2023-02-25T12:53:29.999Z,2.17
2023-02-25T12:55:52.784Z,1.83
2023-02-25T12:58:16.732Z,1.70
2023-02-25T13:00:56.128Z,1.58
2023-02-25T13:03:21.999Z,1.90
2023-02-25T13:05:50.678Z,2.00
2023-02-25T13:08:24.867Z,2.40
2023-02-25T13:10:42.546Z,2.33
2023-02-25T13:13:09.686Z,2.03
2023-02-25T13:15:21.581Z,2.00
2023-02-25T13:17:42.660Z,1.00
2023-02-25T13:20:05.682Z,0.85
2023-02-25T13:22:25.786Z,1.10
2023-02-25T13:24:48.848Z,0.63
2023-02-25T13:27:18.663Z,0.70
2023-02-25T13:29:35.080Z,0.63
2023-02-25T13:31:47.152Z,0.65
2023-02-25T13:34:04.620Z,1.00
2023-02-25T13:36:27.818Z,1.00
2023-02-25T13:39:00.676Z,0.90
2023-02-25T13:41:21.810Z,0.90
2023-02-25T13:43:56.336Z,0.90
2023-02-25T13:46:17.492Z,0.90
2023-02-25T13:48:43.743Z,0.95
2023-02-25T13:53:41.015Z,2.13
2023-02-25T13:56:17.983Z,2.40
2023-02-25T13:58:38.310Z,3.35
2023-02-25T14:01:08.606Z,2.55
2023-02-25T14:03:37.259Z,1.90
2023-02-25T14:06:01.693Z,2.25
2023-02-25T14:08:51.292Z,1.00
2023-02-25T14:11:11.401Z,1.48
2023-02-25T14:13:51.138Z,0.95
2023-02-25T14:16:08.080Z,1.10
2023-02-25T14:18:26.277Z,1.20
2023-02-25T14:20:48.903Z,1.25
2023-02-25T14:22:58.174Z,7.18
2023-02-25T14:25:17.318Z,1.90
2023-02-25T14:27:34.413Z,2.67
2023-02-25T14:29:53.359Z,2.20
2023-02-25T14:32:24.440Z,2.50
2023-02-25T14:34:47.494Z,2.13
2023-02-25T14:37:04.335Z,2.17
2023-02-25T14:39:23.820Z,2.03
2023-02-25T14:41:38.293Z,1.80
2023-02-25T14:43:49.852Z,1.30
2023-02-25T14:46:02.329Z,1.45
2023-02-25T14:48:14.867Z,1.55
2023-02-25T14:50:27.027Z,1.63
2023-02-25T14:52:55.770Z,1.67
2023-02-25T14:55:33.148Z,1.50
2023-02-25T14:58:06.290Z,1.70
2023-02-25T15:00:37.631Z,1.13
2023-02-25T15:03:14.013Z,1.00
2023-02-25T15:05:34.361Z,1.30
2023-02-25T15:07:56.545Z,1.30
2023-02-25T15:10:21.461Z,1.10
2023-02-25T15:12:46.397Z,1.15
2023-02-25T15:15:18.975Z,1.17
2023-02-25T15:18:05.967Z,1.50
2023-02-25T15:20:41.011Z,1.38
2023-02-25T15:22:58.843Z,1.20
2023-02-25T15:25:40.850Z,1.33
2023-02-25T15:27:50.613Z,1.70
2023-02-25T15:30:02.590Z,1.50
2023-02-25T15:32:24.786Z,1.70
2023-02-25T15:34:39.471Z,1.30
2023-02-25T15:36:50.228Z,1.48
2023-02-25T15:38:56.638Z,1.40
2023-02-25T15:41:02.826Z,1.75
2023-02-25T15:43:37.425Z,1.90
2023-02-25T15:45:44.996Z,1.85
2023-02-25T15:47:50.829Z,2.28
2023-02-25T15:49:58.689Z,1.70
2023-02-25T15:52:09.089Z,1.60
2023-02-25T15:54:34.485Z,1.60
2023-02-25T15:57:01.464Z,2.00
2023-02-25T15:59:06.385Z,1.70
2023-02-25T16:01:33.314Z,2.03
2023-02-25T16:03:45.216Z,1.50
2023-02-25T16:05:50.338Z,1.02
2023-02-25T16:08:15.552Z,1.77
2023-02-25T16:10:28.199Z,1.40
2023-02-25T16:12:33.490Z,1.63
2023-02-25T16:14:39.795Z,1.95
2023-02-25T16:16:50.746Z,2.05
2023-02-25T16:18:58.442Z,2.13
2023-02-25T16:21:06.471Z,2.00
2023-02-25T16:23:14.183Z,2.05
2023-02-25T16:25:24.464Z,2.00
2023-02-25T16:27:47.629Z,2.05
2023-02-25T16:30:05.547Z,2.50
2023-02-25T16:32:21.817Z,1.30
2023-02-25T16:34:33.203Z,2.38
2023-02-25T16:36:44.328Z,1.90
2023-02-25T16:38:59.550Z,1.67
2023-02-25T16:41:04.754Z,1.75
2023-02-25T16:43:15.886Z,1.30
2023-02-25T16:45:28.267Z,1.70
2023-02-25T16:47:36.789Z,1.90
2023-02-25T16:49:46.978Z,1.42
2023-02-25T16:51:55.349Z,1.88
2023-02-25T16:54:09.359Z,1.48
2023-02-25T16:56:20.126Z,1.52
2023-02-25T16:58:27.756Z,1.88
2023-02-25T17:00:33.213Z,1.23
2023-02-25T17:02:46.430Z,0.90
2023-02-25T17:04:55.256Z,1.60
2023-02-25T17:07:14.529Z,1.40
2023-02-25T17:09:29.503Z,1.17
2023-02-25T17:11:34.360Z,1.25
2023-02-25T17:13:43.257Z,1.50
2023-02-25T17:15:48.090Z,1.10
2023-02-25T17:17:56.548Z,0.95
2023-02-25T17:20:02.413Z,1.10
2023-02-25T17:22:07.253Z,1.90
2023-02-25T17:24:16.927Z,1.33
2023-02-25T17:26:24.776Z,1.95
2023-02-25T17:28:33.963Z,1.80
2023-02-25T17:30:46.349Z,1.60
2023-02-25T17:33:00.968Z,2.00
2023-02-25T17:35:06.777Z,1.27
2023-02-25T17:37:14.571Z,1.50
2023-02-25T17:39:21.917Z,1.10
2023-02-25T17:41:30.182Z,1.23
2023-02-25T17:43:39.898Z,1.17
2023-02-25T17:45:47.335Z,1.65
2023-02-25T17:47:52.434Z,2.00
2023-02-25T17:50:01.850Z,1.92
2023-02-25T17:52:09.767Z,1.77
2023-02-25T17:54:20.002Z,1.60
2023-02-25T17:56:27.670Z,2.15
2023-02-25T17:58:35.570Z,3.20
2023-02-25T18:00:41.024Z,2.80
2023-02-25T18:02:46.813Z,1.98
2023-02-25T18:04:52.825Z,1.90
2023-02-25T18:06:58.447Z,1.90
2023-02-25T18:09:04.460Z,1.80
2023-02-25T18:11:28.883Z,1.90
2023-02-25T18:13:40.741Z,1.80
2023-02-25T18:15:50.765Z,1.55
2023-02-25T18:18:01.547Z,1.55
2023-02-25T18:20:09.529Z,2.40
2023-02-25T18:22:29.103Z,1.83
2023-02-25T18:24:36.482Z,2.08
2023-02-25T18:26:41.245Z,1.83
2023-02-25T18:28:48.663Z,1.73
2023-02-25T18:30:54.137Z,1.23
2023-02-25T18:32:59.780Z,1.30
2023-02-25T18:35:04.776Z,1.92
2023-02-25T18:37:09.627Z,1.40
2023-02-25T18:39:16.279Z,1.30
2023-02-25T18:41:22.101Z,1.70
2023-02-25T18:43:34.669Z,2.88
2023-02-25T18:45:42.117Z,2.40
2023-02-25T18:47:47.235Z,2.53
2023-02-25T18:51:56.830Z,2.30
2023-02-25T18:54:02.153Z,1.83
2023-02-25T18:56:08.891Z,3.60
2023-02-25T18:58:16.291Z,3.40
2023-02-25T19:00:24.452Z,5.10
2023-02-25T19:02:35.355Z,2.70
2023-02-25T19:04:40.571Z,2.38
2023-02-25T19:06:46.901Z,2.10
2023-02-25T19:08:52.223Z,1.65
2023-02-25T19:11:00.482Z,1.65
2023-02-25T19:13:08.152Z,1.95
2023-02-25T19:15:18.586Z,1.80
2023-02-25T19:17:23.442Z,2.28
2023-02-25T19:19:31.065Z,1.75
2023-02-25T19:21:36.522Z,1.90
2023-02-25T19:23:41.463Z,2.25
2023-02-25T19:25:47.620Z,1.90
2023-02-25T19:27:52.785Z,2.20
2023-02-25T19:32:05.790Z,2.10
2023-02-25T19:36:18.775Z,2.28
2023-02-25T19:38:33.224Z,2.08
2023-02-25T19:40:38.812Z,1.63
2023-02-25T19:42:45.386Z,1.45
2023-02-25T19:44:50.374Z,1.70
2023-02-25T19:46:55.365Z,1.60
2023-02-25T19:49:00.400Z,1.27
2023-02-25T19:51:08.926Z,1.80
2023-02-25T19:53:16.490Z,1.70
2023-02-25T19:55:22.682Z,1.80
2023-02-25T19:57:27.495Z,1.70
2023-02-25T19:59:32.721Z,3.78
2023-02-25T20:03:42.898Z,2.85
2023-02-25T20:05:47.825Z,2.25
2023-02-25T20:07:52.649Z,2.55
2023-02-25T20:10:00.452Z,2.10
2023-02-25T20:12:05.404Z,2.63
2023-02-25T20:14:12.527Z,2.00
2023-02-25T20:16:17.609Z,2.33
2023-02-25T20:18:22.399Z,2.42
2023-02-25T20:20:27.343Z,1.95
2023-02-25T20:22:32.200Z,1.60
2023-02-25T20:24:40.286Z,1.65
2023-02-25T20:26:48.406Z,1.40
2023-02-25T20:28:56.078Z,5.25
2023-02-25T20:31:06.522Z,2.83
2023-02-25T20:33:11.423Z,2.33
2023-02-25T20:35:21.045Z,3.00
2023-02-25T20:37:32.047Z,1.85
2023-02-25T20:39:52.189Z,3.00
2023-02-25T20:42:03.637Z,1.70
2023-02-25T20:44:09.205Z,1.88
2023-02-25T20:46:24.061Z,3.50
2023-02-25T20:48:31.073Z,2.90
2023-02-25T20:50:38.341Z,1.70
2023-02-25T20:52:43.835Z,2.25
2023-02-25T20:54:49.969Z,2.90
2023-02-25T20:56:57.069Z,3.03
2023-02-25T20:59:04.848Z,2.28
2023-02-25T21:01:10.107Z,2.30
2023-02-25T21:03:14.942Z,5.40
2023-02-25T21:05:20.288Z,3.05
2023-02-25T21:07:25.110Z,3.63
2023-02-25T21:09:30.139Z,2.58
2023-02-25T21:11:35.882Z,1.80
2023-02-25T21:13:41.047Z,1.90
2023-02-25T21:15:48.535Z,3.75
2023-02-25T21:17:55.253Z,2.92
2023-02-25T21:20:00.126Z,1.15
2023-02-25T21:22:05.279Z,2.03
2023-02-25T21:24:15.095Z,1.75
2023-02-25T21:26:20.205Z,3.25
2023-02-25T21:28:25.347Z,1.23
2023-02-25T21:30:30.481Z,1.50
2023-02-25T21:32:38.301Z,1.42
2023-02-25T21:34:43.125Z,3.35
2023-02-25T21:36:48.485Z,1.17
2023-02-25T21:38:56.122Z,1.63
2023-02-25T21:41:07.292Z,1.60
2023-02-25T21:43:12.378Z,1.33
2023-02-25T21:45:17.764Z,1.67
2023-02-25T21:47:22.612Z,2.03
2023-02-25T21:49:31.840Z,1.10
2023-02-25T21:51:40.366Z,5.00
2023-02-25T21:53:48.400Z,1.50
2023-02-25T21:55:55.807Z,1.67
2023-02-25T21:58:00.670Z,1.75
2023-02-25T22:00:06.190Z,1.70
2023-02-25T22:02:17.079Z,1.58
2023-02-25T22:04:22.012Z,6.90
2023-02-25T22:06:29.866Z,10.57
2023-02-25T22:08:34.697Z,13.57
2023-02-25T22:10:40.728Z,4.13
2023-02-25T22:12:45.544Z,3.28
2023-02-25T22:14:50.508Z,1.90
2023-02-25T22:16:58.680Z,2.00
2023-02-25T22:19:03.976Z,1.60
2023-02-25T22:21:13.123Z,1.45
2023-02-25T22:23:20.487Z,1.60
2023-02-25T22:25:25.284Z,2.45
2023-02-25T22:27:30.797Z,1.88
2023-02-25T22:29:35.613Z,1.50
2023-02-25T22:31:40.647Z,1.70
2023-02-25T22:35:56.676Z,21.60
2023-02-25T22:38:01.520Z,3.30
2023-02-25T22:40:10.358Z,2.30
2023-02-25T22:42:15.198Z,3.17
2023-02-25T22:44:19.974Z,4.68
2023-02-25T22:46:27.417Z,7.78
2023-02-25T22:48:32.387Z,5.32
2023-02-25T22:50:37.162Z,3.08
2023-02-25T22:52:43.694Z,5.85
2023-02-25T22:54:49.179Z,9.73
2023-02-25T22:56:56.766Z,7.10
2023-02-25T22:59:01.616Z,2.90
2023-02-25T23:01:06.425Z,2.35
2023-02-25T23:03:12.285Z,4.55
2023-02-25T23:05:17.288Z,3.83
2023-02-25T23:07:22.127Z,2.60
2023-02-25T23:09:26.909Z,3.45
2023-02-25T23:11:34.896Z,2.58
2023-02-25T23:13:46.834Z,1.85
2023-02-25T23:15:51.721Z,1.70
2023-02-25T23:20:01.757Z,1.52
2023-02-25T23:24:14.010Z,1.63
2023-02-25T23:26:21.064Z,1.17
2023-02-25T23:28:25.850Z,1.50
2023-02-25T23:30:33.232Z,1.83
2023-02-25T23:32:40.729Z,2.13
2023-02-25T23:34:45.602Z,1.70
2023-02-25T23:36:50.556Z,1.80
2023-02-25T23:38:56.342Z,2.63
2023-02-25T23:41:03.745Z,2.00
2023-02-25T23:43:08.526Z,1.60
2023-02-25T23:45:16.142Z,1.55
2023-02-25T23:47:23.579Z,1.50
2023-02-25T23:49:28.661Z,2.00
2023-02-25T23:51:33.836Z,1.67
2023-02-25T23:53:39.101Z,1.60
2023-02-25T23:57:48.434Z,1.88
2023-02-25T23:59:55.811Z,1.48
